createdAt,value
2023-05-16T00:00:45.506Z,11.96
2023-05-16T00:03:13.210Z,11.79
2023-05-16T00:05:42.231Z,11.70
2023-05-16T00:08:09.882Z,11.80
2023-05-16T00:10:37.522Z,11.66
2023-05-16T00:13:05.178Z,11.57
2023-05-16T00:15:33.351Z,11.50
2023-05-16T00:18:01.121Z,11.51
2023-05-16T00:20:29.664Z,11.45
2023-05-16T00:23:01.059Z,11.45
2023-05-16T00:25:28.971Z,11.61
2023-05-16T00:27:56.536Z,11.48
2023-05-16T00:30:24.360Z,11.48
2023-05-16T00:32:52.842Z,11.56
2023-05-16T00:35:20.509Z,11.44
2023-05-16T00:37:51.004Z,11.61
2023-05-16T00:40:20.043Z,11.54
2023-05-16T00:42:47.762Z,11.46
2023-05-16T00:45:15.427Z,11.20
2023-05-16T00:47:44.215Z,11.46
2023-05-16T00:50:12.254Z,11.44
2023-05-16T00:52:39.962Z,11.49
2023-05-16T00:55:08.133Z,11.49
2023-05-16T00:57:37.056Z,11.40
2023-05-16T01:00:05.498Z,11.41
2023-05-16T01:02:34.061Z,11.46
2023-05-16T01:05:01.833Z,11.56
2023-05-16T01:07:29.878Z,11.60
2023-05-16T01:09:57.813Z,11.46
2023-05-16T01:12:31.140Z,11.58
2023-05-16T01:15:06.238Z,11.30
2023-05-16T01:17:37.976Z,11.19
2023-05-16T01:20:12.147Z,11.24
2023-05-16T01:22:47.722Z,11.27
2023-05-16T01:25:22.833Z,11.13
2023-05-16T01:27:53.066Z,11.13
2023-05-16T01:30:21.223Z,11.35
2023-05-16T01:32:48.842Z,11.30
2023-05-16T01:35:17.989Z,11.24
2023-05-16T01:37:49.828Z,11.21
2023-05-16T01:40:19.862Z,11.39
2023-05-16T01:42:48.858Z,11.37
2023-05-16T01:45:21.701Z,11.29
2023-05-16T01:47:53.558Z,11.37
2023-05-16T01:50:23.762Z,11.35
2023-05-16T01:52:54.615Z,11.30
2023-05-16T01:55:26.070Z,11.31
2023-05-16T01:57:54.577Z,11.21
2023-05-16T02:00:24.306Z,11.31
2023-05-16T02:02:51.964Z,11.21
2023-05-16T02:05:19.582Z,11.23
2023-05-16T02:07:47.651Z,11.16
2023-05-16T02:10:15.388Z,11.19
2023-05-16T02:12:43.398Z,11.11
2023-05-16T02:15:11.899Z,11.10
2023-05-16T02:17:41.605Z,11.16
2023-05-16T02:20:10.279Z,11.25
2023-05-16T02:22:39.175Z,11.27
2023-05-16T02:25:07.550Z,11.28
2023-05-16T02:27:36.180Z,11.22
2023-05-16T02:30:03.980Z,11.36
2023-05-16T02:32:31.795Z,11.30
2023-05-16T02:35:00.776Z,11.30
2023-05-16T02:37:28.452Z,11.13
2023-05-16T02:39:56.325Z,11.10
2023-05-16T02:42:24.012Z,11.03
2023-05-16T02:44:51.592Z,11.04
2023-05-16T02:47:19.214Z,11.09
2023-05-16T02:49:46.873Z,11.17
2023-05-16T02:52:16.063Z,11.22
2023-05-16T02:54:44.480Z,11.21
2023-05-16T02:57:13.257Z,11.25
2023-05-16T02:59:40.865Z,11.13
2023-05-16T03:02:08.555Z,11.16
2023-05-16T03:04:36.388Z,11.13
2023-05-16T03:07:04.054Z,11.15
2023-05-16T03:09:33.145Z,11.22
2023-05-16T03:12:00.849Z,11.30
2023-05-16T03:14:28.461Z,11.11
2023-05-16T03:16:56.141Z,11.09
2023-05-16T03:19:24.191Z,10.97
2023-05-16T03:21:51.890Z,11.10
2023-05-16T03:24:21.680Z,11.07
2023-05-16T03:26:51.098Z,10.94
2023-05-16T03:29:22.134Z,11.00
2023-05-16T03:31:49.821Z,11.00
2023-05-16T03:34:17.935Z,11.07
2023-05-16T03:36:45.651Z,10.89
2023-05-16T03:39:13.347Z,10.94
2023-05-16T03:41:40.996Z,11.02
2023-05-16T03:44:09.946Z,10.95
2023-05-16T03:46:37.667Z,10.81
2023-05-16T03:49:05.328Z,10.80
2023-05-16T03:51:33.278Z,10.80
2023-05-16T03:54:01.102Z,10.83
2023-05-16T03:56:28.751Z,10.81
2023-05-16T03:58:56.366Z,11.06
2023-05-16T04:01:25.591Z,11.02
2023-05-16T04:03:53.282Z,10.80
2023-05-16T04:06:21.478Z,10.68
2023-05-16T04:08:49.348Z,10.70
2023-05-16T04:11:16.924Z,10.59
2023-05-16T04:13:44.737Z,10.65
2023-05-16T04:16:12.974Z,10.81
2023-05-16T04:18:42.066Z,10.75
2023-05-16T04:21:10.918Z,10.74
2023-05-16T04:23:38.578Z,10.92
2023-05-16T04:26:06.125Z,10.75
2023-05-16T04:28:33.745Z,10.90
2023-05-16T04:31:02.001Z,10.80
2023-05-16T04:33:29.715Z,10.83
2023-05-16T04:35:59.294Z,10.73
2023-05-16T04:38:26.885Z,10.73
2023-05-16T04:40:54.709Z,10.71
2023-05-16T04:43:22.354Z,10.78
2023-05-16T04:45:50.691Z,10.69
2023-05-16T04:48:18.334Z,10.70
2023-05-16T04:50:46.043Z,10.81
2023-05-16T04:53:15.310Z,10.83
2023-05-16T04:55:43.079Z,10.68
2023-05-16T04:58:10.815Z,10.66
2023-05-16T05:00:38.504Z,10.64
2023-05-16T05:03:06.739Z,10.60
2023-05-16T05:05:34.594Z,10.70
2023-05-16T05:08:02.357Z,10.67
2023-05-16T05:10:32.085Z,10.71
2023-05-16T05:12:59.729Z,10.80
2023-05-16T05:15:27.856Z,10.74
2023-05-16T05:17:55.778Z,10.74
2023-05-16T05:20:23.469Z,10.48
2023-05-16T05:22:51.092Z,10.46
2023-05-16T05:25:18.738Z,10.55
2023-05-16T05:27:48.127Z,10.62
2023-05-16T05:30:16.268Z,10.62
2023-05-16T05:32:44.010Z,10.58
2023-05-16T05:35:11.675Z,10.80
2023-05-16T05:37:39.287Z,10.62
2023-05-16T05:40:07.744Z,10.68
2023-05-16T05:42:35.346Z,10.65
2023-05-16T05:45:04.750Z,10.72
2023-05-16T05:47:32.618Z,10.62
2023-05-16T05:50:00.517Z,10.73
2023-05-16T05:52:29.286Z,10.81
2023-05-16T05:54:57.873Z,10.82
2023-05-16T05:57:25.444Z,10.52
2023-05-16T05:59:53.132Z,10.40
2023-05-16T06:02:22.170Z,10.39
2023-05-16T06:04:49.737Z,10.39
2023-05-16T06:07:18.346Z,10.64
2023-05-16T06:09:45.933Z,10.59
2023-05-16T06:12:13.630Z,10.91
2023-05-16T06:14:41.212Z,10.86
2023-05-16T06:17:08.898Z,10.94
2023-05-16T06:19:37.887Z,10.98
2023-05-16T06:22:05.627Z,11.03
2023-05-16T06:24:33.194Z,10.95
2023-05-16T06:27:00.969Z,11.11
2023-05-16T06:29:28.532Z,11.03
2023-05-16T06:31:56.129Z,11.12
2023-05-16T06:34:28.080Z,10.93
2023-05-16T06:36:57.067Z,10.88
2023-05-16T06:39:24.633Z,10.93
2023-05-16T06:41:56.240Z,10.84
2023-05-16T06:44:24.294Z,10.84
2023-05-16T06:46:51.930Z,10.77
2023-05-16T06:49:19.649Z,10.69
2023-05-16T06:51:47.259Z,10.71
2023-05-16T06:54:16.282Z,10.60
2023-05-16T06:56:43.987Z,10.45
2023-05-16T06:59:11.597Z,10.49
2023-05-16T07:01:39.380Z,10.36
2023-05-16T07:04:07.493Z,10.46
2023-05-16T07:06:35.186Z,10.48
2023-05-16T07:09:03.195Z,10.81
2023-05-16T07:11:32.363Z,11.32
2023-05-16T07:13:59.973Z,11.53
2023-05-16T07:16:28.571Z,11.74
2023-05-16T07:18:56.468Z,11.97
2023-05-16T07:21:24.119Z,12.21
2023-05-16T07:23:51.870Z,12.05
2023-05-16T07:26:22.207Z,11.92
2023-05-16T07:28:51.767Z,11.83
2023-05-16T07:31:19.670Z,11.88
2023-05-16T07:33:49.043Z,11.87
2023-05-16T07:36:17.784Z,11.85
2023-05-16T07:38:46.063Z,11.77
2023-05-16T07:41:13.766Z,11.99
2023-05-16T07:43:41.356Z,11.85
2023-05-16T07:46:11.134Z,11.82
2023-05-16T07:48:38.839Z,11.75
2023-05-16T07:51:06.487Z,11.57
2023-05-16T07:53:34.648Z,11.65
2023-05-16T07:56:02.367Z,11.65
2023-05-16T07:58:29.982Z,11.80
2023-05-16T08:00:57.737Z,11.87
2023-05-16T08:03:27.055Z,12.12
2023-05-16T08:05:54.809Z,12.03
2023-05-16T08:08:22.565Z,12.01
2023-05-16T08:10:50.251Z,11.85
2023-05-16T08:13:17.864Z,11.91
2023-05-16T08:15:45.615Z,11.58
2023-05-16T08:18:14.128Z,11.82
2023-05-16T08:20:43.363Z,12.17
2023-05-16T08:23:11.002Z,12.21
2023-05-16T08:25:38.789Z,12.40
2023-05-16T08:28:06.428Z,12.37
2023-05-16T08:30:34.198Z,12.15
2023-05-16T08:33:05.016Z,12.38
2023-05-16T08:35:32.862Z,12.17
2023-05-16T08:38:03.012Z,12.07
2023-05-16T08:40:31.413Z,12.17
2023-05-16T08:42:59.205Z,12.58
2023-05-16T08:45:27.354Z,12.92
2023-05-16T08:47:55.908Z,12.70
2023-05-16T08:50:23.970Z,12.84
2023-05-16T08:52:52.860Z,12.63
2023-05-16T08:55:22.186Z,12.59
2023-05-16T08:57:50.855Z,12.79
2023-05-16T09:00:19.215Z,13.13
2023-05-16T09:02:47.164Z,13.31
2023-05-16T09:05:15.750Z,13.68
2023-05-16T09:07:43.960Z,13.45
2023-05-16T09:10:12.090Z,13.43
2023-05-16T09:12:41.957Z,13.00
2023-05-16T09:15:10.143Z,13.06
2023-05-16T09:17:41.381Z,13.39
2023-05-16T09:20:10.080Z,13.30
2023-05-16T09:22:38.140Z,13.36
2023-05-16T09:25:08.622Z,13.55
2023-05-16T09:27:42.020Z,13.48
2023-05-16T09:30:10.356Z,13.37
2023-05-16T09:32:38.077Z,13.21
2023-05-16T09:35:06.214Z,13.22
2023-05-16T09:37:33.904Z,13.52
2023-05-16T09:40:01.760Z,13.64
2023-05-16T09:42:29.438Z,13.82
2023-05-16T09:44:58.460Z,14.36
2023-05-16T09:47:28.845Z,14.36
2023-05-16T09:49:57.414Z,14.31
2023-05-16T09:52:27.820Z,14.07
2023-05-16T09:54:55.824Z,14.02
2023-05-16T09:57:24.014Z,14.03
2023-05-16T09:59:51.675Z,13.83
2023-05-16T10:02:21.855Z,13.72
2023-05-16T10:04:49.628Z,13.94
2023-05-16T10:07:17.513Z,13.94
2023-05-16T10:09:46.255Z,13.72
2023-05-16T10:12:14.440Z,13.42
2023-05-16T10:14:43.198Z,13.85
2023-05-16T10:17:12.554Z,13.94
2023-05-16T10:19:42.422Z,14.10
2023-05-16T10:22:11.448Z,14.56
2023-05-16T10:24:43.278Z,14.91
2023-05-16T10:27:11.115Z,14.84
2023-05-16T10:29:50.296Z,14.67
2023-05-16T10:32:23.088Z,14.47
2023-05-16T10:34:52.634Z,14.18
2023-05-16T10:37:20.309Z,14.13
2023-05-16T10:39:48.120Z,14.13
2023-05-16T10:42:18.352Z,14.60
2023-05-16T10:44:51.632Z,14.93
2023-05-16T10:47:26.282Z,14.90
2023-05-16T10:49:55.328Z,14.52
2023-05-16T10:52:33.772Z,14.14
2023-05-16T10:55:03.273Z,14.12
2023-05-16T10:57:34.137Z,14.41
2023-05-16T11:00:04.188Z,14.44
2023-05-16T11:02:33.860Z,14.48
2023-05-16T11:05:03.658Z,14.67
2023-05-16T11:07:32.084Z,14.77
2023-05-16T11:10:05.373Z,15.06
2023-05-16T11:12:43.342Z,15.12
2023-05-16T11:15:21.033Z,15.40
2023-05-16T11:17:48.967Z,15.30
2023-05-16T11:20:35.202Z,15.18
2023-05-16T11:23:17.730Z,14.84
2023-05-16T11:25:47.124Z,14.90
2023-05-16T11:28:14.980Z,14.84
2023-05-16T11:30:44.160Z,14.59
2023-05-16T11:33:12.982Z,14.99
2023-05-16T11:35:40.753Z,14.94
2023-05-16T11:38:13.018Z,14.91
2023-05-16T11:40:43.608Z,15.08
2023-05-16T11:43:13.253Z,15.32
2023-05-16T11:45:41.145Z,15.27
2023-05-16T11:48:11.716Z,14.70
2023-05-16T11:50:42.165Z,14.77
2023-05-16T11:53:09.836Z,14.45
2023-05-16T11:55:42.344Z,14.30
2023-05-16T11:58:12.379Z,14.07
2023-05-16T12:00:48.401Z,14.24
2023-05-16T12:03:16.384Z,14.50
2023-05-16T12:05:51.425Z,14.68
2023-05-16T12:08:19.092Z,14.97
2023-05-16T12:10:46.802Z,14.53
2023-05-16T12:13:16.824Z,14.35
2023-05-16T12:15:44.556Z,14.55
2023-05-16T12:18:12.426Z,14.58
2023-05-16T12:20:40.463Z,14.74
2023-05-16T12:23:11.874Z,14.95
2023-05-16T12:25:43.876Z,14.69
2023-05-16T12:28:12.874Z,14.73
2023-05-16T12:30:43.345Z,14.76
2023-05-16T12:33:11.699Z,14.66
2023-05-16T12:35:40.717Z,14.93
2023-05-16T12:38:09.069Z,15.55
2023-05-16T12:40:38.124Z,15.49
2023-05-16T12:43:06.004Z,15.62
2023-05-16T12:45:35.435Z,15.40
2023-05-16T12:48:12.871Z,15.08
2023-05-16T12:50:40.629Z,14.91
2023-05-16T12:53:12.415Z,14.94
2023-05-16T12:55:41.194Z,14.98
2023-05-16T12:58:09.136Z,15.28
2023-05-16T13:00:37.529Z,15.44
2023-05-16T13:03:06.255Z,15.81
2023-05-16T13:05:36.181Z,15.92
2023-05-16T13:08:04.361Z,15.70
2023-05-16T13:10:32.097Z,15.46
2023-05-16T13:13:00.179Z,15.52
2023-05-16T13:15:28.625Z,15.72
2023-05-16T13:17:56.692Z,15.85
2023-05-16T13:20:24.745Z,15.86
2023-05-16T13:22:53.764Z,15.58
2023-05-16T13:25:21.405Z,15.46
2023-05-16T13:27:49.541Z,15.51
2023-05-16T13:30:17.460Z,14.89
2023-05-16T13:32:45.158Z,14.77
2023-05-16T13:35:13.385Z,15.05
2023-05-16T13:37:41.425Z,14.91
2023-05-16T13:40:11.232Z,14.59
2023-05-16T13:42:39.019Z,14.78
2023-05-16T13:45:07.888Z,14.83
2023-05-16T13:47:35.718Z,14.70
2023-05-16T13:50:07.732Z,14.51
2023-05-16T13:52:37.732Z,14.41
2023-05-16T13:55:06.069Z,14.60
2023-05-16T13:57:35.222Z,14.66
2023-05-16T14:00:27.977Z,14.88
2023-05-16T14:02:52.965Z,14.72
2023-05-16T14:05:20.778Z,14.72
2023-05-16T14:07:48.472Z,14.49
2023-05-16T14:10:16.147Z,14.67
2023-05-16T14:12:45.132Z,14.50
2023-05-16T14:15:12.817Z,14.69
2023-05-16T14:17:40.884Z,15.20
2023-05-16T14:20:11.915Z,15.25
2023-05-16T14:22:39.705Z,15.44
2023-05-16T14:25:08.427Z,15.15
2023-05-16T14:27:36.053Z,14.81
2023-05-16T14:30:05.410Z,14.89
2023-05-16T14:32:33.150Z,15.05
2023-05-16T14:35:00.813Z,14.94
2023-05-16T14:37:28.501Z,15.02
2023-05-16T14:39:57.278Z,15.00
2023-05-16T14:42:24.930Z,14.61
2023-05-16T14:44:52.526Z,14.67
2023-05-16T14:47:21.498Z,14.90
2023-05-16T14:49:49.127Z,14.75
2023-05-16T14:52:16.774Z,14.91
2023-05-16T14:54:44.475Z,14.75
2023-05-16T14:57:12.157Z,14.66
2023-05-16T14:59:39.797Z,14.60
2023-05-16T15:02:08.185Z,14.68
2023-05-16T15:04:37.438Z,14.79
2023-05-16T15:07:05.284Z,14.76
2023-05-16T15:09:32.958Z,14.90
2023-05-16T15:13:42.285Z,14.07
2023-05-16T15:16:10.236Z,14.30
2023-05-16T15:18:38.168Z,14.56
2023-05-16T15:21:06.063Z,14.65
2023-05-16T15:23:34.116Z,14.25
2023-05-16T15:26:02.115Z,14.13
2023-05-16T15:28:30.014Z,14.12
2023-05-16T15:30:59.202Z,14.47
2023-05-16T15:33:27.086Z,14.53
2023-05-16T15:35:54.901Z,14.17
2023-05-16T15:38:22.757Z,14.50
2023-05-16T15:40:55.248Z,14.72
2023-05-16T15:43:29.393Z,14.99
2023-05-16T15:45:57.169Z,14.89
2023-05-16T15:48:26.379Z,15.01
2023-05-16T15:50:54.366Z,15.06
2023-05-16T15:53:22.415Z,14.86
2023-05-16T15:55:51.173Z,15.04
2023-05-16T15:58:20.625Z,14.87
2023-05-16T16:00:50.187Z,14.86
2023-05-16T16:03:18.198Z,15.06
2023-05-16T16:05:48.039Z,15.08
2023-05-16T16:08:16.146Z,14.88
2023-05-16T16:10:44.046Z,14.69
2023-05-16T16:13:11.863Z,14.48
2023-05-16T16:15:42.111Z,14.58
2023-05-16T16:18:11.680Z,14.15
2023-05-16T16:20:39.636Z,14.43
2023-05-16T16:23:09.144Z,14.28
2023-05-16T16:25:37.455Z,14.28
2023-05-16T16:28:05.709Z,14.20
2023-05-16T16:30:33.709Z,14.04
2023-05-16T16:33:01.726Z,14.01
2023-05-16T16:35:29.955Z,13.96
2023-05-16T16:38:06.261Z,14.12
2023-05-16T16:40:36.431Z,14.20
2023-05-16T16:43:06.024Z,14.31
2023-05-16T16:45:34.263Z,14.57
2023-05-16T16:48:02.233Z,14.77
2023-05-16T16:50:31.138Z,14.82
2023-05-16T16:53:01.791Z,14.73
2023-05-16T16:55:29.720Z,14.76
2023-05-16T16:57:59.187Z,14.81
2023-05-16T17:00:27.362Z,14.76
2023-05-16T17:02:55.363Z,14.64
2023-05-16T17:05:23.655Z,14.27
2023-05-16T17:07:51.631Z,14.23
2023-05-16T17:10:21.075Z,14.23
2023-05-16T17:12:49.979Z,14.00
2023-05-16T17:15:19.331Z,13.86
2023-05-16T17:17:49.088Z,13.69
2023-05-16T17:20:17.076Z,14.03
2023-05-16T17:22:46.068Z,14.22
2023-05-16T17:25:13.962Z,14.25
2023-05-16T17:27:41.752Z,14.37
2023-05-16T17:30:10.494Z,14.25
2023-05-16T17:32:40.627Z,14.19
2023-05-16T17:35:08.972Z,14.17
2023-05-16T17:37:36.841Z,14.20
2023-05-16T17:40:05.871Z,14.20
2023-05-16T17:42:33.791Z,14.08
2023-05-16T17:45:04.350Z,14.01
2023-05-16T17:47:32.269Z,14.18
2023-05-16T17:50:01.676Z,14.15
2023-05-16T17:52:29.670Z,14.23
2023-05-16T17:54:57.795Z,14.10
2023-05-16T17:57:25.690Z,14.17
2023-05-16T17:59:53.901Z,14.08
2023-05-16T18:02:21.843Z,14.00
2023-05-16T18:04:49.704Z,13.86
2023-05-16T18:07:18.886Z,13.75
2023-05-16T18:09:46.742Z,13.92
2023-05-16T18:12:15.331Z,13.95
2023-05-16T18:14:45.244Z,13.52
2023-05-16T18:17:13.428Z,13.66
2023-05-16T18:19:41.582Z,13.61
2023-05-16T18:22:11.917Z,13.35
2023-05-16T18:24:41.386Z,13.24
2023-05-16T18:27:09.387Z,13.08
2023-05-16T18:29:37.332Z,13.55
2023-05-16T18:32:05.676Z,13.33
2023-05-16T18:34:34.100Z,13.25
2023-05-16T18:37:02.079Z,13.27
2023-05-16T18:39:32.401Z,13.20
2023-05-16T18:42:01.376Z,13.30
2023-05-16T18:44:29.272Z,13.29
2023-05-16T18:46:58.635Z,13.03
2023-05-16T18:49:26.694Z,13.01
2023-05-16T18:51:54.621Z,13.08
2023-05-16T18:54:24.240Z,13.02
2023-05-16T18:56:52.326Z,13.03
2023-05-16T18:59:21.596Z,12.61
2023-05-16T19:01:49.356Z,12.71
2023-05-16T19:04:17.340Z,13.04
2023-05-16T19:06:46.068Z,12.89
2023-05-16T19:09:14.174Z,12.71
2023-05-16T19:11:42.177Z,12.70
2023-05-16T19:14:10.015Z,12.56
2023-05-16T19:16:39.254Z,12.45
2023-05-16T19:19:08.346Z,11.95
2023-05-16T19:21:36.577Z,12.40
2023-05-16T19:24:04.606Z,12.46
2023-05-16T19:26:32.448Z,12.45
2023-05-16T19:29:00.284Z,12.35
2023-05-16T19:31:28.313Z,12.22
2023-05-16T19:33:57.552Z,11.91
2023-05-16T19:36:25.440Z,12.08
2023-05-16T19:38:53.322Z,12.20
2023-05-16T19:41:21.484Z,12.18
2023-05-16T19:43:49.281Z,12.15
2023-05-16T19:46:17.154Z,12.13
2023-05-16T19:48:45.076Z,12.11
2023-05-16T19:51:14.449Z,11.73
2023-05-16T19:53:42.837Z,12.16
2023-05-16T19:56:10.975Z,12.13
2023-05-16T19:58:38.841Z,11.86
2023-05-16T20:01:06.694Z,11.98
2023-05-16T20:03:34.815Z,11.17
2023-05-16T20:06:02.851Z,11.75
2023-05-16T20:08:32.835Z,11.71
2023-05-16T20:11:00.974Z,11.54
2023-05-16T20:13:30.415Z,11.46
2023-05-16T20:15:58.671Z,11.50
2023-05-16T20:18:27.204Z,11.67
2023-05-16T20:20:58.545Z,11.61
2023-05-16T20:23:26.704Z,11.60
2023-05-16T20:25:56.389Z,11.54
2023-05-16T20:28:24.239Z,11.53
2023-05-16T20:30:51.994Z,11.57
2023-05-16T20:33:20.030Z,11.42
2023-05-16T20:35:47.888Z,11.38
2023-05-16T20:38:16.696Z,11.32
2023-05-16T20:40:44.553Z,11.17
2023-05-16T20:43:13.768Z,11.39
2023-05-16T20:45:41.707Z,11.43
2023-05-16T20:48:09.676Z,11.33
2023-05-16T20:50:38.915Z,11.22
2023-05-16T20:53:06.756Z,11.27
2023-05-16T20:55:34.729Z,11.36
2023-05-16T20:58:02.708Z,11.36
2023-05-16T21:00:33.558Z,11.37
2023-05-16T21:03:01.923Z,11.28
2023-05-16T21:05:29.890Z,11.21
2023-05-16T21:07:57.808Z,11.38
2023-05-16T21:10:25.636Z,11.32
2023-05-16T21:12:53.458Z,11.16
2023-05-16T21:15:23.322Z,11.24
2023-05-16T21:17:53.002Z,11.29
2023-05-16T21:20:22.232Z,10.94
2023-05-16T21:22:50.291Z,11.19
2023-05-16T21:25:18.115Z,11.30
2023-05-16T21:27:46.011Z,11.24
2023-05-16T21:30:14.857Z,11.13
2023-05-16T21:32:42.752Z,11.07
2023-05-16T21:35:12.122Z,10.99
2023-05-16T21:37:39.944Z,10.91
2023-05-16T21:40:10.011Z,10.90
2023-05-16T21:42:38.079Z,10.89
2023-05-16T21:45:12.356Z,10.88
2023-05-16T21:47:40.213Z,10.93
2023-05-16T21:50:09.379Z,10.63
2023-05-16T21:52:38.615Z,10.88
2023-05-16T21:55:08.299Z,10.81
2023-05-16T21:57:36.190Z,10.83
2023-05-16T22:00:06.682Z,10.71
2023-05-16T22:02:36.306Z,10.71
2023-05-16T22:05:04.777Z,10.80
2023-05-16T22:07:32.680Z,10.74
2023-05-16T22:10:02.039Z,10.50
2023-05-16T22:12:29.891Z,10.42
2023-05-16T22:14:58.384Z,10.55
2023-05-16T22:17:26.434Z,10.56
2023-05-16T22:19:54.267Z,10.53
2023-05-16T22:22:22.146Z,10.52
2023-05-16T22:24:49.982Z,10.44
2023-05-16T22:27:19.144Z,10.32
2023-05-16T22:29:46.988Z,10.30
2023-05-16T22:32:14.996Z,10.46
2023-05-16T22:34:42.840Z,10.38
2023-05-16T22:37:11.265Z,10.34
2023-05-16T22:39:39.184Z,10.25
2023-05-16T22:42:07.377Z,10.19
2023-05-16T22:44:36.580Z,10.16
2023-05-16T22:47:04.440Z,10.07
2023-05-16T22:49:32.305Z,10.20
2023-05-16T22:52:00.188Z,10.22
2023-05-16T22:54:28.097Z,9.96
2023-05-16T22:56:56.062Z,10.10
2023-05-16T22:59:24.008Z,9.99
2023-05-16T23:01:53.208Z,10.01
2023-05-16T23:04:21.027Z,10.02
2023-05-16T23:06:48.963Z,9.49
2023-05-16T23:09:16.757Z,9.48
2023-05-16T23:11:44.552Z,8.93
2023-05-16T23:14:12.373Z,9.65
2023-05-16T23:16:40.174Z,9.83
2023-05-16T23:19:09.822Z,9.93
2023-05-16T23:21:38.380Z,9.92
2023-05-16T23:24:06.608Z,9.77
2023-05-16T23:26:34.575Z,9.89
2023-05-16T23:29:02.360Z,9.93
2023-05-16T23:31:30.205Z,9.64
2023-05-16T23:33:58.068Z,9.99
2023-05-16T23:36:27.407Z,9.90
2023-05-16T23:38:55.165Z,9.81
2023-05-16T23:41:23.015Z,9.70
2023-05-16T23:43:50.815Z,9.63
2023-05-16T23:46:18.709Z,9.77
2023-05-16T23:48:46.788Z,9.32
2023-05-16T23:51:14.655Z,9.47
2023-05-16T23:53:44.008Z,9.47
2023-05-16T23:56:11.783Z,9.45
2023-05-16T23:58:39.582Z,9.40
